Time;durP1;ratioP1;P1;durP2;ratioP2;P2;SDS_P1;SDS_P2;PMS_P1;PMS_P2;Temp;Humidity;BMP_temperature;BMP_pressure;BME280_temperature;BME280_humidity;BME280_pressure;Samples;Min_cycle;Max_cycle;Signal;HPM_P1;HPM_P2
2023/02/10 00:00:56;;;;;;;;;;;;;;;;;;5072359;28;19937;-80
2023/02/10 00:03:22;;;;;;;;;;;;;;;;;;5065115;28;20258;-81
2023/02/10 00:05:48;;;;;;;;;;;;;;;;;;5063871;28;19916;-81
2023/02/10 00:08:14;;;;;;;;;;;;;;;;;;5063312;28;19909;-81
2023/02/10 00:10:40;;;;;;;;;;;;;;;;;;5061879;28;19912;-80
2023/02/10 00:13:05;;;;;;;;;;;;;;;;;;5051128;28;20180;-80
2023/02/10 00:15:31;;;;;;;;;;;;;;;;;;5069263;28;19913;-81
2023/02/10 00:17:57;;;;;;;;;;;;;;;;;;5070307;28;19909;-80
2023/02/10 00:20:23;;;;;;;;;;;;;;;;;;5056299;28;19944;-80
2023/02/10 00:22:49;;;;;;;;;;;;;;;;;;5049065;28;19976;-79
2023/02/10 00:25:15;;;;;;;;;;;;;;;;;;5047255;28;19939;-80
2023/02/10 00:27:41;;;;;;;;;;;;;;;;;;5046279;28;19909;-80
2023/02/10 00:30:07;;;;;;;;;;;;;;;;;;5048024;28;19921;-80
2023/02/10 00:32:33;;;;;;;;;;;;;;;;;;5064325;28;19918;-79
2023/02/10 00:34:59;;;;;;;;;;;;;;;;;;5055051;28;19917;-80
2023/02/10 00:37:24;;;;;;;;;;;;;;;;;;5045761;28;19909;-80
2023/02/10 00:39:50;;;;;;;;;;;;;;;;;;5063367;28;19905;-80
2023/02/10 00:42:16;;;;;;;;;;;;;;;;;;5061123;28;19980;-80
2023/02/10 00:44:42;;;;;;;;;;;;;;;;;;5062762;28;20035;-79
2023/02/10 00:47:08;;;;;;;;;;;;;;;;;;5062146;28;20363;-80
2023/02/10 00:49:34;;;;;;;;;;;;;;;;;;5042514;28;19908;-79
2023/02/10 00:52:00;;;;;;;;;;;;;;;;;;5059187;28;19943;-79
2023/02/10 00:54:26;;;;;;;;;;;;;;;;;;5056266;28;19952;-79
2023/02/10 00:56:52;;;;;;;;;;;;;;;;;;5041833;28;19913;-79
2023/02/10 00:59:19;;;;;;;;;;;;;;;;;;5040409;28;19963;-80
2023/02/10 01:01:45;;;;;;;;;;;;;;;;;;5057290;28;19963;-79
2023/02/10 01:04:11;;;;;;;;;;;;;;;;;;5056458;28;19913;-79
2023/02/10 01:06:37;;;;;;;;;;;;;;;;;;5037829;28;20374;-79
2023/02/10 01:09:03;;;;;;;;;;;;;;;;;;5057012;28;19912;-79
2023/02/10 01:11:29;;;;;;;;;;;;;;;;;;5056410;28;19944;-79
2023/02/10 01:13:55;;;;;;;;;;;;;;;;;;5039130;28;20339;-79
2023/02/10 01:16:20;;;;;;;;;;;;;;;;;;5036566;28;19943;-81
2023/02/10 01:18:46;;;;;;;;;;;;;;;;;;5054966;28;19931;-82
2023/02/10 01:21:12;;;;;;;;;;;;;;;;;;5070028;28;19909;-82
2023/02/10 01:23:38;;;;;;;;;;;;;;;;;;5052442;28;19944;-80
2023/02/10 01:26:04;;;;;;;;;;;;;;;;;;5050326;28;19909;-82
2023/02/10 01:28:30;;;;;;;;;;;;;;;;;;5051219;28;19917;-80
2023/02/10 01:30:56;;;;;;;;;;;;;;;;;;5048500;28;19920;-79
2023/02/10 01:33:22;;;;;;;;;;;;;;;;;;5041045;28;19909;-82
2023/02/10 01:35:48;;;;;;;;;;;;;;;;;;5038537;28;19913;-80
2023/02/10 01:38:13;;;;;;;;;;;;;;;;;;5028406;28;20322;-82
2023/02/10 01:40:39;;;;;;;;;;;;;;;;;;5041695;28;19909;-82
2023/02/10 01:43:05;;;;;;;;;;;;;;;;;;5059360;28;20283;-82
2023/02/10 01:45:31;;;;;;;;;;;;;;;;;;5040616;28;19916;-82
2023/02/10 01:47:57;;;;;;;;;;;;;;;;;;5040687;28;19916;-82
2023/02/10 01:50:23;;;;;;;;;;;;;;;;;;5039356;28;19913;-82
2023/02/10 01:52:49;;;;;;;;;;;;;;;;;;5058689;28;19961;-82
2023/02/10 01:55:15;;;;;;;;;;;;;;;;;;5058754;28;19913;-80
2023/02/10 01:57:43;;;;;;;;;;;;;;;;;;5034930;28;20441;-82
2023/02/10 02:00:09;;;;;;;;;;;;;;;;;;5019281;28;19910;-82
2023/02/10 02:02:35;;;;;;;;;;;;;;;;;;5038891;28;19909;-82
2023/02/10 02:05:01;;;;;;;;;;;;;;;;;;5034323;28;19939;-81
2023/02/10 02:07:26;;;;;;;;;;;;;;;;;;5040125;28;19945;-80
2023/02/10 02:09:52;;;;;;;;;;;;;;;;;;5056909;28;19959;-80
2023/02/10 02:12:18;;;;;;;;;;;;;;;;;;5039692;28;19908;-82
2023/02/10 02:14:45;;;;;;;;;;;;;;;;;;5054822;28;19924;-80
2023/02/10 02:17:11;;;;;;;;;;;;;;;;;;5058156;28;19985;-80
2023/02/10 02:19:37;;;;;;;;;;;;;;;;;;5040058;28;19940;-82
2023/02/10 02:22:03;;;;;;;;;;;;;;;;;;5057962;28;19909;-82
2023/02/10 02:24:29;;;;;;;;;;;;;;;;;;5038246;28;19913;-82
2023/02/10 02:26:55;;;;;;;;;;;;;;;;;;5057235;28;19909;-82
2023/02/10 02:29:21;;;;;;;;;;;;;;;;;;5040056;28;19999;-82
2023/02/10 02:31:47;;;;;;;;;;;;;;;;;;5040825;28;20375;-82
2023/02/10 02:34:13;;;;;;;;;;;;;;;;;;5036909;28;20386;-82
2023/02/10 02:36:39;;;;;;;;;;;;;;;;;;5037088;28;19920;-82
2023/02/10 02:39:05;;;;;;;;;;;;;;;;;;5019827;28;20007;-82
2023/02/10 02:41:30;;;;;;;;;;;;;;;;;;5045023;28;19913;-82
2023/02/10 02:43:56;;;;;;;;;;;;;;;;;;5056287;28;20448;-82
2023/02/10 02:46:22;;;;;;;;;;;;;;;;;;5056568;28;19945;-82
2023/02/10 02:48:48;;;;;;;;;;;;;;;;;;5039259;28;20307;-82
2023/02/10 02:51:14;;;;;;;;;;;;;;;;;;5051179;28;20312;-82
2023/02/10 02:53:40;;;;;;;;;;;;;;;;;;5038707;28;19908;-82
2023/02/10 02:56:06;;;;;;;;;;;;;;;;;;5038956;28;20430;-82
2023/02/10 02:58:32;;;;;;;;;;;;;;;;;;5058774;28;20007;-82
2023/02/10 03:01:00;;;;;;;;;;;;;;;;;;5060227;28;19930;-82
2023/02/10 03:03:25;;;;;;;;;;;;;;;;;;5059082;28;19959;-82
2023/02/10 03:05:51;;;;;;;;;;;;;;;;;;5043327;28;19909;-81
2023/02/10 03:08:17;;;;;;;;;;;;;;;;;;5043216;28;19909;-82
2023/02/10 03:10:43;;;;;;;;;;;;;;;;;;5038161;28;20028;-81
2023/02/10 03:13:09;;;;;;;;;;;;;;;;;;5053808;28;19939;-82
2023/02/10 03:15:35;;;;;;;;;;;;;;;;;;5059922;28;19970;-82
2023/02/10 03:18:01;;;;;;;;;;;;;;;;;;5059744;28;19909;-82
2023/02/10 03:20:27;;;;;;;;;;;;;;;;;;5041535;28;19913;-82
2023/02/10 03:22:53;;;;;;;;;;;;;;;;;;5042033;28;19998;-82
2023/02/10 03:25:18;;;;;;;;;;;;;;;;;;5041300;28;19915;-82
2023/02/10 03:27:44;;;;;;;;;;;;;;;;;;5056859;28;19913;-82
2023/02/10 03:30:10;;;;;;;;;;;;;;;;;;5059471;28;20386;-82
2023/02/10 03:32:36;;;;;;;;;;;;;;;;;;5058845;28;19908;-82
2023/02/10 03:35:02;;;;;;;;;;;;;;;;;;5040914;28;20353;-81
2023/02/10 03:37:28;;;;;;;;;;;;;;;;;;5058696;28;19908;-81
2023/02/10 03:39:54;;;;;;;;;;;;;;;;;;5024531;28;19920;-81
2023/02/10 03:42:20;;;;;;;;;;;;;;;;;;5058604;28;20429;-82
2023/02/10 03:44:46;;;;;;;;;;;;;;;;;;5041979;28;19912;-82
2023/02/10 03:47:11;;;;;;;;;;;;;;;;;;5041186;28;19913;-82
2023/02/10 03:49:37;;;;;;;;;;;;;;;;;;5038584;28;19917;-82
2023/02/10 03:52:03;;;;;;;;;;;;;;;;;;5040333;28;20408;-82
2023/02/10 03:54:31;;;;;;;;;;;;;;;;;;5058556;28;19909;-82
2023/02/10 03:56:57;;;;;;;;;;;;;;;;;;5038611;28;19967;-82
2023/02/10 03:59:22;;;;;;;;;;;;;;;;;;5040263;28;19913;-81
2023/02/10 04:01:49;;;;;;;;;;;;;;;;;;5040037;28;19909;-82
2023/02/10 04:04:14;;;;;;;;;;;;;;;;;;5033909;28;19913;-82
2023/02/10 04:06:40;;;;;;;;;;;;;;;;;;5039893;28;19959;-81
2023/02/10 04:09:06;;;;;;;;;;;;;;;;;;5056763;28;20359;-82
2023/02/10 04:11:32;;;;;;;;;;;;;;;;;;5038246;28;19916;-82
2023/02/10 04:13:58;;;;;;;;;;;;;;;;;;5039961;28;19909;-82
2023/02/10 04:16:27;;;;;;;;;;;;;;;;;;5040281;28;20356;-82
2023/02/10 04:18:53;;;;;;;;;;;;;;;;;;5057863;28;20415;-82
2023/02/10 04:21:19;;;;;;;;;;;;;;;;;;5040029;28;20007;-82
2023/02/10 04:23:45;;;;;;;;;;;;;;;;;;5055161;28;19920;-82
2023/02/10 04:26:11;;;;;;;;;;;;;;;;;;5057425;28;19909;-82
2023/02/10 04:28:36;;;;;;;;;;;;;;;;;;5057629;28;19952;-82
2023/02/10 04:31:02;;;;;;;;;;;;;;;;;;5053719;28;19927;-82
2023/02/10 04:33:28;;;;;;;;;;;;;;;;;;5057081;28;20308;-82
2023/02/10 04:35:54;;;;;;;;;;;;;;;;;;5039011;28;19913;-82
2023/02/10 04:38:20;;;;;;;;;;;;;;;;;;5057234;28;20313;-82
2023/02/10 04:40:46;;;;;;;;;;;;;;;;;;5053289;28;19913;-82
2023/02/10 04:43:12;;;;;;;;;;;;;;;;;;5057098;28;19916;-82
2023/02/10 04:45:38;;;;;;;;;;;;;;;;;;5039300;28;19909;-82
2023/02/10 04:48:04;;;;;;;;;;;;;;;;;;5054633;28;19916;-82
2023/02/10 04:50:30;;;;;;;;;;;;;;;;;;5019207;28;19913;-82
2023/02/10 04:52:56;;;;;;;;;;;;;;;;;;5036947;28;19913;-82
2023/02/10 04:55:22;;;;;;;;;;;;;;;;;;5023013;28;19917;-82
2023/02/10 04:57:48;;;;;;;;;;;;;;;;;;5038813;28;19940;-82
2023/02/10 05:00:14;;;;;;;;;;;;;;;;;;5056148;28;20007;-81
2023/02/10 05:02:40;;;;;;;;;;;;;;;;;;5057255;28;19951;-82
2023/02/10 05:05:06;;;;;;;;;;;;;;;;;;5056460;28;20113;-82
2023/02/10 05:07:32;;;;;;;;;;;;;;;;;;5056178;28;19972;-82
2023/02/10 05:09:57;;;;;;;;;;;;;;;;;;5036751;28;19965;-81
2023/02/10 05:12:23;;;;;;;;;;;;;;;;;;5056292;28;19991;-82
2023/02/10 05:14:49;;;;;;;;;;;;;;;;;;5037528;28;19908;-82
2023/02/10 05:17:15;;;;;;;;;;;;;;;;;;5056431;28;20409;-82
2023/02/10 05:19:41;;;;;;;;;;;;;;;;;;5053270;28;19909;-82
2023/02/10 05:22:07;;;;;;;;;;;;;;;;;;5056456;28;19931;-82
2023/02/10 05:24:33;;;;;;;;;;;;;;;;;;5055892;28;19909;-82
2023/02/10 05:26:59;;;;;;;;;;;;;;;;;;5051423;28;19925;-82
2023/02/10 05:29:25;;;;;;;;;;;;;;;;;;5053858;28;20382;-82
2023/02/10 05:31:50;;;;;;;;;;;;;;;;;;5050512;28;19913;-82
2023/02/10 05:34:16;;;;;;;;;;;;;;;;;;5055495;28;19920;-82
2023/02/10 05:36:43;;;;;;;;;;;;;;;;;;5056040;28;19967;-82
2023/02/10 05:39:25;;;;;;;;;;;;;;;;;;5033814;28;19921;-81
2023/02/10 05:41:51;;;;;;;;;;;;;;;;;;5034500;28;20397;-82
2023/02/10 05:44:17;;;;;;;;;;;;;;;;;;5032130;28;19913;-81
2023/02/10 05:46:43;;;;;;;;;;;;;;;;;;5035962;28;19996;-82
2023/02/10 05:49:09;;;;;;;;;;;;;;;;;;5036435;28;20010;-82
2023/02/10 05:51:35;;;;;;;;;;;;;;;;;;5037677;28;19916;-82
2023/02/10 05:54:01;;;;;;;;;;;;;;;;;;5037889;28;19926;-82
2023/02/10 05:56:26;;;;;;;;;;;;;;;;;;5035982;28;20321;-82
2023/02/10 05:58:52;;;;;;;;;;;;;;;;;;5056170;28;19909;-82
2023/02/10 06:01:18;;;;;;;;;;;;;;;;;;5036387;28;19913;-82
2023/02/10 06:03:44;;;;;;;;;;;;;;;;;;5036044;28;19964;-82
2023/02/10 06:06:10;;;;;;;;;;;;;;;;;;5036321;28;19909;-82
2023/02/10 06:08:36;;;;;;;;;;;;;;;;;;5018806;28;19959;-82
2023/02/10 06:11:03;;;;;;;;;;;;;;;;;;5018960;28;19927;-82
2023/02/10 06:13:29;;;;;;;;;;;;;;;;;;5019265;28;19909;-82
2023/02/10 06:15:55;;;;;;;;;;;;;;;;;;5018096;28;19921;-82
2023/02/10 06:18:21;;;;;;;;;;;;;;;;;;5018184;28;20445;-82
2023/02/10 06:20:47;;;;;;;;;;;;;;;;;;5046951;28;19920;-82
2023/02/10 06:23:13;;;;;;;;;;;;;;;;;;5057021;28;19966;-82
2023/02/10 06:25:38;;;;;;;;;;;;;;;;;;5053023;28;20382;-82
2023/02/10 06:28:04;;;;;;;;;;;;;;;;;;5052839;28;19920;-82
2023/02/10 06:30:30;;;;;;;;;;;;;;;;;;5055392;28;19948;-82
2023/02/10 06:32:56;;;;;;;;;;;;;;;;;;5038914;28;19917;-82
2023/02/10 06:35:22;;;;;;;;;;;;;;;;;;5058714;28;19912;-82
2023/02/10 06:37:48;;;;;;;;;;;;;;;;;;5056572;28;20106;-82
2023/02/10 06:40:14;;;;;;;;;;;;;;;;;;5041150;28;20295;-82
2023/02/10 06:42:40;;;;;;;;;;;;;;;;;;5040384;28;19910;-82
2023/02/10 06:45:06;;;;;;;;;;;;;;;;;;5040005;28;19997;-82
2023/02/10 06:47:32;;;;;;;;;;;;;;;;;;5022396;28;19991;-82
2023/02/10 06:49:57;;;;;;;;;;;;;;;;;;5039133;28;20302;-83
2023/02/10 06:52:24;;;;;;;;;;;;;;;;;;5040182;28;19999;-83
2023/02/10 06:54:50;;;;;;;;;;;;;;;;;;5021377;28;19915;-82
2023/02/10 06:57:16;;;;;;;;;;;;;;;;;;5038487;28;19918;-82
2023/02/10 06:59:41;;;;;;;;;;;;;;;;;;5055647;28;20298;-82
2023/02/10 07:02:09;;;;;;;;;;;;;;;;;;5040502;28;19931;-82
2023/02/10 07:04:35;;;;;;;;;;;;;;;;;;5058835;28;19909;-81
2023/02/10 07:07:01;;;;;;;;;;;;;;;;;;5040847;28;19959;-82
2023/02/10 07:09:27;;;;;;;;;;;;;;;;;;5039583;28;19916;-82
2023/02/10 07:11:53;;;;;;;;;;;;;;;;;;5041369;28;19940;-81
2023/02/10 07:14:19;;;;;;;;;;;;;;;;;;5040157;28;20428;-82
2023/02/10 07:16:44;;;;;;;;;;;;;;;;;;5059686;28;19913;-82
2023/02/10 07:19:10;;;;;;;;;;;;;;;;;;5039437;28;19913;-83
2023/02/10 07:21:38;;;;;;;;;;;;;;;;;;5059156;28;19916;-82
2023/02/10 07:24:03;;;;;;;;;;;;;;;;;;5041033;28;19916;-82
2023/02/10 07:26:29;;;;;;;;;;;;;;;;;;5041484;28;20003;-82
2023/02/10 07:28:55;;;;;;;;;;;;;;;;;;5038917;28;20399;-81
2023/02/10 07:31:21;;;;;;;;;;;;;;;;;;5030826;28;19927;-83
2023/02/10 07:33:47;;;;;;;;;;;;;;;;;;5059762;28;19944;-83
2023/02/10 07:36:13;;;;;;;;;;;;;;;;;;5059768;28;19939;-83
2023/02/10 07:38:39;;;;;;;;;;;;;;;;;;5055526;28;19913;-83
2023/02/10 07:41:05;;;;;;;;;;;;;;;;;;5042301;28;19916;-83
2023/02/10 07:43:31;;;;;;;;;;;;;;;;;;5042136;28;20378;-82
2023/02/10 07:45:57;;;;;;;;;;;;;;;;;;5041370;28;20445;-82
2023/02/10 07:48:22;;;;;;;;;;;;;;;;;;5059586;28;20345;-83
2023/02/10 07:50:49;;;;;;;;;;;;;;;;;;5059176;28;20437;-83
2023/02/10 07:53:15;;;;;;;;;;;;;;;;;;5059914;28;19909;-82
2023/02/10 07:55:41;;;;;;;;;;;;;;;;;;5040044;28;19962;-83
2023/02/10 07:58:07;;;;;;;;;;;;;;;;;;5041998;28;19908;-84
2023/02/10 08:00:33;;;;;;;;;;;;;;;;;;5041363;28;19912;-83
2023/02/10 08:02:59;;;;;;;;;;;;;;;;;;5057909;28;19912;-83
2023/02/10 08:05:26;;;;;;;;;;;;;;;;;;5040652;28;19915;-83
2023/02/10 08:07:52;;;;;;;;;;;;;;;;;;5040403;28;19992;-84
2023/02/10 08:10:18;;;;;;;;;;;;;;;;;;5052752;28;19921;-83
2023/02/10 08:12:46;;;;;;;;;;;;;;;;;;5035206;28;19913;-84
2023/02/10 08:15:11;;;;;;;;;;;;;;;;;;5021765;28;19916;-84
2023/02/10 08:17:38;;;;;;;;;;;;;;;;;;5039887;28;20434;-84
2023/02/10 08:20:04;;;;;;;;;;;;;;;;;;5038327;28;19936;-84
2023/02/10 08:22:30;;;;;;;;;;;;;;;;;;5036463;28;20013;-83
2023/02/10 08:24:56;;;;;;;;;;;;;;;;;;5037522;28;19971;-83
2023/02/10 08:27:22;;;;;;;;;;;;;;;;;;5034604;28;20006;-83
2023/02/10 08:29:47;;;;;;;;;;;;;;;;;;5062735;28;19976;-85
2023/02/10 08:32:18;;;;;;;;;;;;;;;;;;5022808;28;20404;-84
2023/02/10 08:34:44;;;;;;;;;;;;;;;;;;5005188;28;19913;-84
2023/02/10 08:37:10;;;;;;;;;;;;;;;;;;5006983;28;19980;-84
2023/02/10 08:39:36;;;;;;;;;;;;;;;;;;5044086;28;20366;-84
2023/02/10 08:42:02;;;;;;;;;;;;;;;;;;5043383;28;19930;-85
2023/02/10 08:44:28;;;;;;;;;;;;;;;;;;5056650;28;19913;-84
2023/02/10 08:46:54;;;;;;;;;;;;;;;;;;5042851;28;19916;-83
2023/02/10 08:49:19;;;;;;;;;;;;;;;;;;5038666;28;19919;-83
2023/02/10 08:51:45;;;;;;;;;;;;;;;;;;5031257;28;20276;-83
2023/02/10 08:54:11;;;;;;;;;;;;;;;;;;5027704;28;19920;-83
2023/02/10 08:56:37;;;;;;;;;;;;;;;;;;5025608;28;19917;-83
2023/02/10 08:59:03;;;;;;;;;;;;;;;;;;5041060;28;19917;-83
2023/02/10 09:01:29;;;;;;;;;;;;;;;;;;5022075;28;19919;-84
2023/02/10 09:03:55;;;;;;;;;;;;;;;;;;5022860;28;19972;-83
2023/02/10 09:06:21;;;;;;;;;;;;;;;;;;5039103;28;20317;-83
2023/02/10 09:08:47;;;;;;;;;;;;;;;;;;5042110;28;19913;-83
2023/02/10 09:11:13;;;;;;;;;;;;;;;;;;5058663;28;20350;-83
2023/02/10 09:13:39;;;;;;;;;;;;;;;;;;5040097;28;19909;-84
2023/02/10 09:16:05;;;;;;;;;;;;;;;;;;5058847;28;19920;-84
2023/02/10 09:18:30;;;;;;;;;;;;;;;;;;5038825;28;19915;-84
2023/02/10 09:20:56;;;;;;;;;;;;;;;;;;5060252;28;19931;-84
2023/02/10 09:23:22;;;;;;;;;;;;;;;;;;5060953;28;19908;-84
2023/02/10 09:25:48;;;;;;;;;;;;;;;;;;5059778;28;19909;-84
2023/02/10 09:28:14;;;;;;;;;;;;;;;;;;5060033;28;19909;-85
2023/02/10 09:30:40;;;;;;;;;;;;;;;;;;5057533;28;20018;-84
2023/02/10 09:33:06;;;;;;;;;;;;;;;;;;5059378;28;19909;-84
2023/02/10 09:35:32;;;;;;;;;;;;;;;;;;5059933;28;20420;-84
2023/02/10 09:37:58;;;;;;;;;;;;;;;;;;5042129;28;19908;-84
2023/02/10 09:40:23;;;;;;;;;;;;;;;;;;5034808;28;20333;-83
2023/02/10 09:42:50;;;;;;;;;;;;;;;;;;5059618;28;19912;-82
2023/02/10 09:45:15;;;;;;;;;;;;;;;;;;5061375;28;20017;-84
2023/02/10 09:47:41;;;;;;;;;;;;;;;;;;5060315;28;19955;-84
2023/02/10 09:50:07;;;;;;;;;;;;;;;;;;5041309;28;19983;-85
2023/02/10 09:52:33;;;;;;;;;;;;;;;;;;5036744;28;19916;-85
2023/02/10 09:54:59;;;;;;;;;;;;;;;;;;5020711;28;20028;-85
2023/02/10 09:57:25;;;;;;;;;;;;;;;;;;5036485;28;19920;-84
2023/02/10 09:59:51;;;;;;;;;;;;;;;;;;5055551;28;19909;-85
2023/02/10 10:02:17;;;;;;;;;;;;;;;;;;5038058;28;20298;-83
2023/02/10 10:04:43;;;;;;;;;;;;;;;;;;5037967;28;20283;-84
2023/02/10 10:07:09;;;;;;;;;;;;;;;;;;5034223;28;19913;-84
2023/02/10 10:09:34;;;;;;;;;;;;;;;;;;5042114;28;19967;-84
2023/02/10 10:12:00;;;;;;;;;;;;;;;;;;5041680;28;19909;-84
2023/02/10 10:14:26;;;;;;;;;;;;;;;;;;5060136;28;20379;-84
2023/02/10 10:16:52;;;;;;;;;;;;;;;;;;5058168;28;19923;-84
2023/02/10 10:19:18;;;;;;;;;;;;;;;;;;5060108;28;19916;-84
2023/02/10 10:21:44;;;;;;;;;;;;;;;;;;5060767;28;19909;-84
2023/02/10 10:24:10;;;;;;;;;;;;;;;;;;5043440;28;19913;-83
2023/02/10 10:26:36;;;;;;;;;;;;;;;;;;5035077;28;19913;-81
2023/02/10 10:29:02;;;;;;;;;;;;;;;;;;5042107;28;19966;-85
2023/02/10 10:31:28;;;;;;;;;;;;;;;;;;5025777;28;19909;-83
2023/02/10 10:33:54;;;;;;;;;;;;;;;;;;5044019;28;19962;-82
2023/02/10 10:36:19;;;;;;;;;;;;;;;;;;5024952;28;20287;-82
2023/02/10 10:38:45;;;;;;;;;;;;;;;;;;5034829;28;19913;-83
2023/02/10 10:41:11;;;;;;;;;;;;;;;;;;5064661;28;19909;-84
2023/02/10 10:43:37;;;;;;;;;;;;;;;;;;5063734;28;19909;-83
2023/02/10 10:46:03;;;;;;;;;;;;;;;;;;5063632;28;19949;-83
2023/02/10 10:48:29;;;;;;;;;;;;;;;;;;5043292;28;19916;-84
2023/02/10 10:50:55;;;;;;;;;;;;;;;;;;5045271;28;19909;-84
2023/02/10 10:53:21;;;;;;;;;;;;;;;;;;5044708;28;19920;-84
2023/02/10 10:55:47;;;;;;;;;;;;;;;;;;5062986;28;20051;-83
2023/02/10 10:58:13;;;;;;;;;;;;;;;;;;5044876;28;19919;-84
2023/02/10 11:00:38;;;;;;;;;;;;;;;;;;5063659;28;19913;-84
2023/02/10 11:03:04;;;;;;;;;;;;;;;;;;5063779;28;19955;-83
2023/02/10 11:05:30;;;;;;;;;;;;;;;;;;5045001;28;19908;-82
2023/02/10 11:07:57;;;;;;;;;;;;;;;;;;5060942;28;19924;-82
2023/02/10 11:10:23;;;;;;;;;;;;;;;;;;5063116;28;19909;-84
2023/02/10 11:12:49;;;;;;;;;;;;;;;;;;5060493;28;19912;-84
2023/02/10 11:15:14;;;;;;;;;;;;;;;;;;5061141;28;19913;-83
2023/02/10 11:17:40;;;;;;;;;;;;;;;;;;5060206;28;20003;-83
2023/02/10 11:20:06;;;;;;;;;;;;;;;;;;5022329;28;19909;-84
2023/02/10 11:22:32;;;;;;;;;;;;;;;;;;5040254;28;19913;-84
2023/02/10 11:24:58;;;;;;;;;;;;;;;;;;5023254;28;20264;-84
2023/02/10 11:27:24;;;;;;;;;;;;;;;;;;5023794;28;19909;-83
2023/02/10 11:29:50;;;;;;;;;;;;;;;;;;5044513;28;19921;-84
2023/02/10 11:32:16;;;;;;;;;;;;;;;;;;5060572;28;19916;-83
2023/02/10 11:34:42;;;;;;;;;;;;;;;;;;5059346;28;19928;-83
2023/02/10 11:37:07;;;;;;;;;;;;;;;;;;5042310;28;19912;-83
2023/02/10 11:39:33;;;;;;;;;;;;;;;;;;5057149;28;19940;-81
2023/02/10 11:41:59;;;;;;;;;;;;;;;;;;5023638;28;19914;-82
2023/02/10 11:44:25;;;;;;;;;;;;;;;;;;5041541;28;20007;-83
2023/02/10 11:46:51;;;;;;;;;;;;;;;;;;5039871;28;20418;-81
2023/02/10 11:49:17;;;;;;;;;;;;;;;;;;5040170;28;20209;-82
2023/02/10 11:51:43;;;;;;;;;;;;;;;;;;5041591;28;19920;-81
2023/02/10 11:54:09;;;;;;;;;;;;;;;;;;5042959;28;19909;-83
2023/02/10 11:59:19;;;;;;;;;;;;;;;;;;5060638;28;19948;-82
2023/02/10 12:01:45;;;;;;;;;;;;;;;;;;5059196;28;20291;-82
2023/02/10 12:04:11;;;;;;;;;;;;;;;;;;5060193;28;19940;-83
2023/02/10 12:06:37;;;;;;;;;;;;;;;;;;5059833;28;19909;-84
2023/02/10 12:09:03;;;;;;;;;;;;;;;;;;5059209;28;20026;-85
2023/02/10 12:11:30;;;;;;;;;;;;;;;;;;5057078;28;19990;-84
2023/02/10 12:13:55;;;;;;;;;;;;;;;;;;5041313;28;19995;-84
2023/02/10 12:16:21;;;;;;;;;;;;;;;;;;5058734;28;20355;-84
2023/02/10 12:18:47;;;;;;;;;;;;;;;;;;5058311;28;19913;-85
2023/02/10 12:21:13;;;;;;;;;;;;;;;;;;5038243;28;19967;-84
2023/02/10 12:23:39;;;;;;;;;;;;;;;;;;5042924;28;19959;-85
2023/02/10 12:26:05;;;;;;;;;;;;;;;;;;5043838;28;20335;-85
2023/02/10 12:28:31;;;;;;;;;;;;;;;;;;5043842;28;19916;-84
2023/02/10 12:30:57;;;;;;;;;;;;;;;;;;5057519;28;19912;-83
2023/02/10 12:33:23;;;;;;;;;;;;;;;;;;5043305;28;19913;-83
2023/02/10 12:35:49;;;;;;;;;;;;;;;;;;5061887;28;19920;-84
2023/02/10 12:38:15;;;;;;;;;;;;;;;;;;5061133;28;20003;-84
2023/02/10 12:40:41;;;;;;;;;;;;;;;;;;5060533;28;19919;-84
2023/02/10 12:43:07;;;;;;;;;;;;;;;;;;5055699;28;19912;-84
2023/02/10 12:45:33;;;;;;;;;;;;;;;;;;5041758;28;19916;-84
2023/02/10 12:47:59;;;;;;;;;;;;;;;;;;5060333;28;19916;-84
2023/02/10 12:50:25;;;;;;;;;;;;;;;;;;5057714;28;19913;-84
2023/02/10 12:52:51;;;;;;;;;;;;;;;;;;5058976;28;19909;-85
2023/02/10 12:55:17;;;;;;;;;;;;;;;;;;5060764;28;19931;-85
2023/02/10 12:57:42;;;;;;;;;;;;;;;;;;5061961;28;19909;-85
2023/02/10 13:00:08;;;;;;;;;;;;;;;;;;5058092;28;20004;-85
2023/02/10 13:02:34;;;;;;;;;;;;;;;;;;5036539;28;19962;-85
2023/02/10 13:05:00;;;;;;;;;;;;;;;;;;5054406;28;19909;-84
2023/02/10 13:07:26;;;;;;;;;;;;;;;;;;5056142;28;19916;-83
2023/02/10 13:09:52;;;;;;;;;;;;;;;;;;5058055;28;19963;-84
2023/02/10 13:12:18;;;;;;;;;;;;;;;;;;5037952;28;19913;-83
2023/02/10 13:14:45;;;;;;;;;;;;;;;;;;5059067;28;19912;-84
2023/02/10 13:17:11;;;;;;;;;;;;;;;;;;5041036;28;19912;-84
2023/02/10 13:19:36;;;;;;;;;;;;;;;;;;5040994;28;19939;-85
2023/02/10 13:22:02;;;;;;;;;;;;;;;;;;5058449;28;19919;-85
2023/02/10 13:24:28;;;;;;;;;;;;;;;;;;5064018;28;20197;-85
2023/02/10 13:26:56;;;;;;;;;;;;;;;;;;5061927;28;19909;-84
2023/02/10 13:29:22;;;;;;;;;;;;;;;;;;5042932;28;19952;-83
2023/02/10 13:31:48;;;;;;;;;;;;;;;;;;5056754;28;19913;-85
2023/02/10 13:34:14;;;;;;;;;;;;;;;;;;5040487;28;19947;-84
2023/02/10 13:36:40;;;;;;;;;;;;;;;;;;5042533;28;19913;-84
2023/02/10 13:39:06;;;;;;;;;;;;;;;;;;5059374;28;19909;-86
2023/02/10 13:41:41;;;;;;;;;;;;;;;;;;5031314;28;19928;-85
2023/02/10 13:44:07;;;;;;;;;;;;;;;;;;5022104;28;20392;-85
2023/02/10 13:46:33;;;;;;;;;;;;;;;;;;5038312;28;19967;-84
2023/02/10 13:48:59;;;;;;;;;;;;;;;;;;5027852;28;20008;-85
2023/02/10 13:51:25;;;;;;;;;;;;;;;;;;5041786;28;20003;-84
2023/02/10 13:53:51;;;;;;;;;;;;;;;;;;5041274;28;19909;-84
2023/02/10 13:56:17;;;;;;;;;;;;;;;;;;5050666;28;19916;-84
2023/02/10 13:58:43;;;;;;;;;;;;;;;;;;5039457;28;19913;-84
2023/02/10 14:01:09;;;;;;;;;;;;;;;;;;5040104;28;20000;-86
2023/02/10 14:03:35;;;;;;;;;;;;;;;;;;5058971;28;19931;-85
2023/02/10 14:06:01;;;;;;;;;;;;;;;;;;5038670;28;19934;-86
2023/02/10 14:08:27;;;;;;;;;;;;;;;;;;5039741;28;19915;-85
2023/02/10 14:10:53;;;;;;;;;;;;;;;;;;5057284;28;19916;-85
2023/02/10 14:13:18;;;;;;;;;;;;;;;;;;5039112;28;19909;-85
2023/02/10 14:15:44;;;;;;;;;;;;;;;;;;5056072;28;19925;-84
2023/02/10 14:18:10;;;;;;;;;;;;;;;;;;5058090;28;19909;-84
2023/02/10 14:20:36;;;;;;;;;;;;;;;;;;5058439;28;19963;-83
2023/02/10 14:23:02;;;;;;;;;;;;;;;;;;5040671;28;19908;-83
2023/02/10 14:25:28;;;;;;;;;;;;;;;;;;5024088;28;19917;-83
2023/02/10 14:27:54;;;;;;;;;;;;;;;;;;5056767;28;19913;-83
2023/02/10 14:30:20;;;;;;;;;;;;;;;;;;5031575;28;19921;-83
2023/02/10 14:32:46;;;;;;;;;;;;;;;;;;5037904;28;19910;-83
2023/02/10 14:35:12;;;;;;;;;;;;;;;;;;5036845;28;19913;-83
2023/02/10 14:37:37;;;;;;;;;;;;;;;;;;5038472;28;19964;-83
2023/02/10 14:40:03;;;;;;;;;;;;;;;;;;5021007;28;19959;-84
2023/02/10 14:42:29;;;;;;;;;;;;;;;;;;5039173;28;19909;-83
2023/02/10 14:44:55;;;;;;;;;;;;;;;;;;5038207;28;19913;-83
2023/02/10 14:47:23;;;;;;;;;;;;;;;;;;5022927;28;19920;-83
2023/02/10 14:49:49;;;;;;;;;;;;;;;;;;5030783;28;19913;-83
2023/02/10 14:52:14;;;;;;;;;;;;;;;;;;5052256;28;19913;-82
2023/02/10 14:54:40;;;;;;;;;;;;;;;;;;5039860;28;19932;-83
2023/02/10 14:57:06;;;;;;;;;;;;;;;;;;5041207;28;19916;-84
2023/02/10 14:59:32;;;;;;;;;;;;;;;;;;5023458;28;20047;-84
2023/02/10 15:01:58;;;;;;;;;;;;;;;;;;5023237;28;19936;-84
2023/02/10 15:04:25;;;;;;;;;;;;;;;;;;5022155;28;19919;-84
2023/02/10 15:06:51;;;;;;;;;;;;;;;;;;5039833;28;19992;-84
2023/02/10 15:09:17;;;;;;;;;;;;;;;;;;5048700;28;19955;-83
2023/02/10 15:12:29;;;;;;;;;;;;;;;;;;5041489;28;19909;-83
2023/02/10 15:14:29;;;;;;;;;;;;;;;;;;5044495;28;20386;-83
2023/02/10 15:16:55;;;;;;;;;;;;;;;;;;5060991;28;19913;-83
2023/02/10 15:19:21;;;;;;;;;;;;;;;;;;5050974;28;19912;-83
2023/02/10 15:21:47;;;;;;;;;;;;;;;;;;5043193;28;19916;-83
2023/02/10 15:24:13;;;;;;;;;;;;;;;;;;5043445;28;20027;-83
2023/02/10 15:26:40;;;;;;;;;;;;;;;;;;5061504;28;19952;-83
2023/02/10 15:29:06;;;;;;;;;;;;;;;;;;5059860;28;19925;-84
2023/02/10 15:31:32;;;;;;;;;;;;;;;;;;5043633;28;19916;-85
2023/02/10 15:33:58;;;;;;;;;;;;;;;;;;5061885;28;20011;-85
2023/02/10 15:36:24;;;;;;;;;;;;;;;;;;5062212;28;19927;-86
2023/02/10 15:38:49;;;;;;;;;;;;;;;;;;5054700;28;19917;-85
2023/02/10 15:41:15;;;;;;;;;;;;;;;;;;5062312;28;19909;-85
2023/02/10 15:43:45;;;;;;;;;;;;;;;;;;5043825;28;19909;-84
2023/02/10 15:46:11;;;;;;;;;;;;;;;;;;5062018;28;19909;-84
2023/02/10 15:48:37;;;;;;;;;;;;;;;;;;5035456;28;19913;-84
2023/02/10 15:51:02;;;;;;;;;;;;;;;;;;5023179;28;20318;-85
2023/02/10 15:53:28;;;;;;;;;;;;;;;;;;5024133;28;19948;-85
2023/02/10 15:55:54;;;;;;;;;;;;;;;;;;5045080;28;19917;-85
2023/02/10 15:58:20;;;;;;;;;;;;;;;;;;5043243;28;19915;-84
2023/02/10 16:00:46;;;;;;;;;;;;;;;;;;5059390;28;20374;-83
2023/02/10 16:03:13;;;;;;;;;;;;;;;;;;5060991;28;19924;-83
2023/02/10 16:05:39;;;;;;;;;;;;;;;;;;5038421;28;19908;-83
2023/02/10 16:08:06;;;;;;;;;;;;;;;;;;5059554;28;20026;-84
2023/02/10 16:16:01;;;;;;;;;;;;;;;;;;5019233;28;19924;-84
2023/02/10 16:18:28;;;;;;;;;;;;;;;;;;5018311;28;20003;-84
2023/02/10 16:20:54;;;;;;;;;;;;;;;;;;5018694;28;19913;-84
2023/02/10 16:23:20;;;;;;;;;;;;;;;;;;5026530;28;19959;-84
2023/02/10 16:25:46;;;;;;;;;;;;;;;;;;5039868;28;19913;-84
2023/02/10 16:28:12;;;;;;;;;;;;;;;;;;5036643;28;19914;-84
2023/02/10 16:30:37;;;;;;;;;;;;;;;;;;5022211;28;19917;-84
2023/02/10 16:33:03;;;;;;;;;;;;;;;;;;5020871;28;19920;-84
2023/02/10 16:35:29;;;;;;;;;;;;;;;;;;5058366;28;19971;-83
2023/02/10 16:37:55;;;;;;;;;;;;;;;;;;5055222;28;19917;-83
2023/02/10 16:40:21;;;;;;;;;;;;;;;;;;5021100;28;20322;-83
2023/02/10 16:42:47;;;;;;;;;;;;;;;;;;5039116;28;19936;-83
2023/02/10 16:45:13;;;;;;;;;;;;;;;;;;5019633;28;19905;-84